Time;durP1;ratioP1;P1;durP2;ratioP2;P2;SDS_P1;SDS_P2;PMS_P1;PMS_P2;Temp;Humidity;BMP_temperature;BMP_pressure;BME280_temperature;BME280_humidity;BME280_pressure;Samples;Min_cycle;Max_cycle;Signal;HPM_P1;HPM_P2
2023/03/28 00:04:10;;;;;;;9.80;3.22;;;;;;;0.17;100.00;101930.78;10346792;28;20409;-71
2023/03/28 00:09:08;;;;;;;7.20;3.30;;;;;;;0.18;100.00;101940.50;10347033;28;20047;-71
2023/03/28 00:14:07;;;;;;;8.57;3.10;;;;;;;0.14;100.00;101950.06;10349620;28;20043;-70
2023/03/28 00:19:10;;;;;;;6.80;3.83;;;;;;;0.07;100.00;101948.44;10354469;28;20750;-72
2023/03/28 00:24:12;;;;;;;5.95;2.92;;;;;;;0.07;100.00;101965.44;10347468;28;20127;-72
2023/03/28 00:29:14;;;;;;;;;;;;;;;0.07;100.00;101970.81;10341875;28;20135;-72
2023/03/28 00:34:11;;;;;;;6.82;2.83;;;;;;;-0.02;100.00;101972.09;10353894;28;19920;-72
2023/03/28 00:39:09;;;;;;;9.60;3.20;;;;;;;-0.05;100.00;101983.28;10346153;28;20059;-72
2023/03/28 00:44:41;;;;;;;6.28;3.45;;;;;;;-0.04;100.00;101984.94;10342943;27;20044;-71
2023/03/28 00:49:38;;;;;;;7.20;3.05;;;;;;;-0.12;100.00;102004.00;10338936;28;20067;-73
2023/03/28 00:54:39;;;;;;;13.20;3.40;;;;;;;-0.18;100.00;101988.75;10350147;28;20040;-73
2023/03/28 00:59:37;;;;;;;6.88;3.00;;;;;;;-0.20;100.00;102001.56;10354491;28;20044;-72
2023/03/28 01:04:40;;;;;;;3.97;2.90;;;;;;;-0.27;100.00;102005.09;10332944;28;20132;-70
2023/03/28 01:09:37;;;;;;;9.57;3.25;;;;;;;-0.29;100.00;102015.25;10347995;28;20044;-73
2023/03/28 01:14:35;;;;;;;10.10;3.22;;;;;;;-0.38;100.00;102021.88;10341086;28;20067;-70
2023/03/28 01:19:49;;;;;;;5.75;2.67;;;;;;;-0.39;100.00;102036.38;10348661;28;20050;-73
2023/03/28 01:25:06;;;;;;;6.82;2.90;;;;;;;-0.43;100.00;102035.16;10335578;28;20548;-73
2023/03/28 01:30:30;;;;;;;4.57;2.70;;;;;;;-0.54;100.00;102049.22;10342870;28;20075;-71
2023/03/28 01:35:57;;;;;;;4.80;2.90;;;;;;;-0.56;100.00;102051.31;10342944;28;20064;-73
2023/03/28 01:41:18;;;;;;;7.45;2.92;;;;;;;-0.55;100.00;102063.72;10344846;28;20669;-69
2023/03/28 01:46:29;;;;;;;4.57;2.80;;;;;;;-0.57;100.00;102071.16;10349609;27;20079;-70
2023/03/28 01:51:37;;;;;;;8.43;3.00;;;;;;;-0.67;100.00;102067.03;10339102;27;20052;-70
2023/03/28 01:57:12;;;;;;;7.72;2.85;;;;;;;-0.71;100.00;102068.50;10340816;28;20441;-70
2023/03/28 02:02:21;;;;;;;6.43;3.90;;;;;;;-0.77;100.00;102066.63;10292453;28;20074;-70
2023/03/28 02:07:21;;;;;;;2.83;2.53;;;;;;;-0.81;100.00;102065.41;10348010;27;20130;-70
2023/03/28 02:12:27;;;;;;;6.65;2.90;;;;;;;-0.82;100.00;102077.19;10339603;28;20048;-70
2023/03/28 02:17:27;;;;;;;5.43;2.80;;;;;;;-0.78;100.00;102081.09;10338554;28;20051;-70
2023/03/28 02:22:34;;;;;;;5.55;2.97;;;;;;;-0.79;100.00;102068.72;10342084;28;20094;-70
2023/03/28 02:27:33;;;;;;;5.10;2.85;;;;;;;-0.81;100.00;102070.78;10343653;28;20112;-71
2023/03/28 02:32:32;;;;;;;5.30;3.30;;;;;;;-0.86;100.00;102073.25;10336320;28;20680;-73
2023/03/28 02:37:53;;;;;;;8.50;2.83;;;;;;;-0.96;100.00;102080.91;10344384;28;20044;-73
2023/03/28 02:43:05;;;;;;;4.63;2.70;;;;;;;-0.99;100.00;102089.38;10339290;28;20040;-69
2023/03/28 02:48:25;;;;;;;7.95;3.10;;;;;;;-0.99;100.00;102090.22;10341835;28;20549;-70
2023/03/28 02:53:52;;;;;;;6.35;2.85;;;;;;;-0.96;100.00;102088.97;10335391;28;20043;-69
2023/03/28 02:58:55;;;;;;;5.47;3.03;;;;;;;-1.00;100.00;102093.91;10345219;28;20075;-70
2023/03/28 03:03:52;;;;;;;6.60;2.70;;;;;;;-1.01;100.00;102097.63;10344117;28;20040;-69
2023/03/28 03:08:50;;;;;;;4.88;2.75;;;;;;;-1.00;100.00;102098.47;10332924;28;20061;-71
2023/03/28 03:13:47;;;;;;;8.40;2.80;;;;;;;-1.02;100.00;102095.16;10344236;28;20036;-70
2023/03/28 03:18:43;;;;;;;4.22;2.70;;;;;;;-1.08;100.00;102103.00;10329690;28;20075;-71
2023/03/28 03:23:40;;;;;;;4.57;3.20;;;;;;;-1.04;100.00;102107.94;10351267;28;20044;-71
2023/03/28 03:28:36;;;;;;;5.65;3.10;;;;;;;-1.10;100.00;102105.06;10337923;28;20064;-71
2023/03/28 03:33:34;;;;;;;6.05;3.45;;;;;;;-1.14;100.00;102109.22;10338237;28;20044;-69
2023/03/28 03:38:30;;;;;;;4.75;3.50;;;;;;;-1.10;100.00;102115.81;10344725;28;20123;-69
2023/03/28 03:43:27;;;;;;;5.07;3.55;;;;;;;-1.06;100.00;102130.47;10342556;28;20037;-68
2023/03/28 03:48:24;;;;;;;8.10;4.10;;;;;;;-1.07;100.00;102128.84;10339000;28;20102;-68
2023/03/28 03:53:20;;;;;;;5.43;3.63;;;;;;;-1.15;100.00;102128.19;10337159;28;20624;-67
2023/03/28 03:58:17;;;;;;;4.60;4.10;;;;;;;-1.13;100.00;102126.97;10323545;28;20041;-67
2023/03/28 04:03:15;;;;;;;5.20;3.67;;;;;;;-1.21;100.00;102123.63;10331223;28;20522;-68
2023/03/28 04:08:21;;;;;;;4.47;4.07;;;;;;;-1.23;100.00;102131.91;10326589;28;20040;-68
2023/03/28 04:13:18;;;;;;;7.22;4.88;;;;;;;-1.18;100.00;102134.81;10323513;28;20047;-68
2023/03/28 04:18:16;;;;;;;5.93;4.60;;;;;;;-1.28;100.00;102135.22;10320977;28;20674;-68
2023/03/28 04:23:17;;;;;;;5.15;4.75;;;;;;;-1.22;100.00;102138.94;10327829;28;20044;-68
2023/03/28 04:28:14;;;;;;;5.43;4.93;;;;;;;-1.15;100.00;102139.75;10335444;28;20075;-69
2023/03/28 04:33:11;;;;;;;5.75;4.90;;;;;;;-1.10;100.00;102148.00;10336966;28;20466;-68
2023/03/28 04:38:09;;;;;;;5.88;5.03;;;;;;;-1.20;100.00;102150.28;10331802;28;20050;-67
2023/03/28 04:43:16;;;;;;;5.97;4.68;;;;;;;-1.21;100.00;102150.47;10325757;28;20127;-68
2023/03/28 04:48:12;;;;;;;5.20;4.70;;;;;;;-1.21;100.00;102156.66;10341282;28;20124;-68
2023/03/28 04:53:09;;;;;;;7.53;5.07;;;;;;;-1.30;100.00;102165.94;10346339;27;20040;-68
2023/03/28 04:58:06;;;;;;;5.75;5.20;;;;;;;-1.26;100.00;102164.50;10346241;28;20489;-68
2023/03/28 05:03:06;;;;;;;6.75;5.45;;;;;;;-1.23;100.00;102174.00;10351565;27;20517;-67
2023/03/28 05:08:02;;;;;;;5.28;4.88;;;;;;;-0.97;100.00;102178.63;10330708;28;20421;-67
2023/03/28 05:12:59;;;;;;;5.50;5.00;;;;;;;-0.85;100.00;102187.72;10325982;28;20067;-67
2023/03/28 05:17:56;;;;;;;10.57;5.40;;;;;;;-0.78;100.00;102199.28;10336194;28;20638;-68
2023/03/28 05:22:53;;;;;;;6.28;5.30;;;;;;;-0.66;100.00;102203.00;10334233;27;20471;-67
2023/03/28 05:27:50;;;;;;;7.93;5.95;;;;;;;-0.67;100.00;102208.59;10343025;28;20135;-67
2023/03/28 05:32:47;;;;;;;7.60;5.43;;;;;;;-0.62;100.00;102216.03;10328942;28;20095;-68
2023/03/28 05:37:44;;;;;;;6.95;5.93;;;;;;;-0.52;100.00;102213.75;10325681;28;20048;-67
2023/03/28 05:42:42;;;;;;;7.65;5.60;;;;;;;-0.43;100.00;102217.88;10324081;28;20525;-68
2023/03/28 05:47:39;;;;;;;31.15;7.47;;;;;;;-0.36;100.00;102218.69;10325231;28;20044;-67
2023/03/28 05:52:35;;;;;;;8.95;7.38;;;;;;;-0.30;100.00;102225.94;10333318;27;20695;-67
2023/03/28 05:57:32;;;;;;;9.57;6.00;;;;;;;-0.22;100.00;102225.72;10333622;28;20070;-68
2023/03/28 06:02:29;;;;;;;11.55;6.82;;;;;;;-0.15;100.00;102224.88;10324769;28;20089;-68
2023/03/28 06:07:27;;;;;;;13.30;6.47;;;;;;;-0.26;100.00;102235.22;10329291;28;20140;-67
2023/03/28 06:12:38;;;;;;;8.80;6.10;;;;;;;-0.11;100.00;102234.19;10337940;28;20039;-67
2023/03/28 06:17:34;;;;;;;10.38;7.25;;;;;;;0.02;100.00;102234.16;10325637;28;20056;-68
2023/03/28 06:22:31;;;;;;;10.48;6.85;;;;;;;0.10;100.00;102239.31;10327053;28;20109;-68
2023/03/28 06:27:28;;;;;;;12.20;6.35;;;;;;;0.11;100.00;102240.94;10328516;28;20040;-68
2023/03/28 06:32:25;;;;;;;11.95;6.50;;;;;;;0.14;100.00;102251.31;10329582;28;20056;-67
2023/03/28 06:37:22;;;;;;;12.65;6.85;;;;;;;0.36;100.00;102242.97;10337576;28;20059;-68
2023/03/28 06:42:19;;;;;;;12.57;5.95;;;;;;;0.43;100.00;102249.16;10327650;28;20052;-67
2023/03/28 06:47:15;;;;;;;8.98;5.60;;;;;;;0.61;100.00;102251.16;10342486;28;20055;-67
2023/03/28 06:52:11;;;;;;;11.32;5.70;;;;;;;0.72;100.00;102255.03;10332170;28;20068;-68
2023/03/28 06:57:08;;;;;;;14.45;7.28;;;;;;;0.87;100.00;102263.66;10323015;28;20136;-67
2023/03/28 07:02:05;;;;;;;11.75;6.20;;;;;;;0.99;100.00;102267.31;10336445;28;20094;-68
2023/03/28 07:07:02;;;;;;;13.93;6.03;;;;;;;1.10;100.00;102265.00;10329863;28;20048;-68
2023/03/28 07:11:58;;;;;;;10.80;6.13;;;;;;;1.26;100.00;102275.25;10343553;28;20429;-67
2023/03/28 07:16:55;;;;;;;12.55;6.80;;;;;;;1.37;100.00;102282.66;10332471;28;20588;-67
2023/03/28 07:21:54;;;;;;;8.13;6.07;;;;;;;1.62;100.00;102289.91;10331387;28;20524;-68
2023/03/28 07:26:51;;;;;;;10.55;5.68;;;;;;;1.77;100.00;102293.13;10325298;28;20406;-67
2023/03/28 07:32:03;;;;;;;14.93;5.13;;;;;;;1.95;100.00;102294.22;10339699;28;20052;-67
2023/03/28 07:37:00;;;;;;;14.55;5.65;;;;;;;2.16;100.00;102296.53;10329300;28;20127;-68
2023/03/28 07:41:56;;;;;;;13.77;4.72;;;;;;;2.24;100.00;102293.50;10336309;27;20079;-67
2023/03/28 07:46:53;;;;;;;12.52;5.30;;;;;;;2.28;100.00;102299.31;10333035;28;20040;-67
2023/03/28 07:51:51;;;;;;;11.27;5.15;;;;;;;2.43;100.00;102302.44;10321563;28;20051;-69
2023/03/28 07:56:48;;;;;;;8.90;5.55;;;;;;;2.50;100.00;102307.78;10327544;28;20057;-67
2023/03/28 08:01:44;;;;;;;16.75;6.50;;;;;;;2.61;100.00;102304.34;10345818;28;20036;-67
2023/03/28 08:06:41;;;;;;;14.90;5.93;;;;;;;2.85;100.00;102307.16;10338293;28;20047;-67
2023/03/28 08:11:39;;;;;;;15.35;5.60;;;;;;;2.92;100.00;102310.59;10337530;28;20044;-67
2023/03/28 08:16:35;;;;;;;10.13;5.85;;;;;;;2.99;100.00;102311.34;10333715;28;20553;-67
2023/03/28 08:21:34;;;;;;;12.68;5.30;;;;;;;3.23;100.00;102308.75;10334170;28;20063;-67
2023/03/28 08:26:30;;;;;;;11.30;7.20;;;;;;;3.32;100.00;102310.09;10333949;28;21602;-67
2023/03/28 08:31:28;;;;;;;10.27;5.93;;;;;;;3.44;100.00;102307.41;10342612;28;20074;-67
2023/03/28 08:36:26;;;;;;;13.93;6.15;;;;;;;3.66;100.00;102313.91;10335080;28;20056;-68
2023/03/28 08:41:49;;;;;;;13.27;6.57;;;;;;;3.91;100.00;102313.72;10327203;28;20490;-67
2023/03/28 08:46:53;;;;;;;10.97;6.80;;;;;;;3.92;100.00;102320.81;10342068;28;20051;-67
2023/03/28 08:52:01;;;;;;;13.75;6.40;;;;;;;4.03;100.00;102312.91;10336761;28;20136;-67
2023/03/28 08:57:01;;;;;;;12.82;6.18;;;;;;;4.32;100.00;102320.09;10327203;27;20044;-67
2023/03/28 09:01:57;;;;;;;12.23;6.47;;;;;;;4.09;100.00;102315.50;10348269;27;20044;-66
2023/03/28 09:07:03;;;;;;;11.85;6.35;;;;;;;4.69;100.00;102314.41;10347066;28;20047;-67
2023/03/28 09:12:50;;;;;;;9.65;6.35;;;;;;;5.00;100.00;102304.16;10345098;28;20047;-67
2023/03/28 09:18:21;;;;;;;12.70;7.47;;;;;;;5.15;100.00;102312.59;10297696;28;20040;-67
2023/03/28 09:23:51;;;;;;;6.53;5.88;;;;;;;5.23;100.00;102314.91;10320229;28;20048;-68
2023/03/28 09:29:05;;;;;;;15.70;7.53;;;;;;;5.27;100.00;102321.50;10335373;28;20040;-67
2023/03/28 09:34:02;;;;;;;8.00;6.50;;;;;;;5.07;100.00;102326.53;10345295;28;20051;-67
2023/03/28 09:39:35;;;;;;;12.27;6.95;;;;;;;4.68;100.00;102326.28;10337042;28;20497;-67
2023/03/28 09:44:40;;;;;;;8.15;6.13;;;;;;;5.28;100.00;102320.44;10327261;28;20040;-67
2023/03/28 09:49:50;;;;;;;13.80;7.18;;;;;;;5.28;100.00;102320.44;10330503;28;20054;-67
2023/03/28 09:55:01;;;;;;;10.38;6.45;;;;;;;5.64;100.00;102307.50;10324750;28;20132;-67
2023/03/28 10:00:05;;;;;;;11.70;6.00;;;;;;;5.82;100.00;102316.47;10326248;28;20486;-67
2023/03/28 10:05:04;;;;;;;9.60;6.03;;;;;;;5.92;100.00;102324.78;10337477;28;20385;-68
2023/03/28 10:10:18;;;;;;;11.40;6.90;;;;;;;6.05;100.00;102316.31;10332409;28;20052;-68
2023/03/28 10:15:37;;;;;;;10.68;7.45;;;;;;;5.56;100.00;102329.59;10341330;28;20044;-67
2023/03/28 10:20:36;;;;;;;8.05;6.45;;;;;;;5.34;100.00;102334.94;10334522;27;20089;-67
2023/03/28 10:25:37;;;;;;;9.10;6.75;;;;;;;5.30;100.00;102328.34;10324978;28;20463;-67
2023/03/28 10:30:35;;;;;;;8.50;6.25;;;;;;;5.12;100.00;102329.34;10331995;28;20048;-67
2023/03/28 10:35:32;;;;;;;7.75;6.55;;;;;;;5.03;100.00;102347.06;10345500;28;20132;-67
2023/03/28 10:40:30;;;;;;;10.30;6.85;;;;;;;5.00;100.00;102342.94;10337063;28;20048;-63
2023/03/28 10:45:36;;;;;;;9.45;6.05;;;;;;;5.42;100.00;102344.53;10338023;28;20043;-67
2023/03/28 10:50:42;;;;;;;9.52;6.50;;;;;;;5.81;100.00;102347.41;10322062;28;20044;-67
2023/03/28 10:56:06;;;;;;;7.90;6.60;;;;;;;5.92;100.00;102338.38;10327525;28;20370;-67
2023/03/28 11:01:11;;;;;;;6.97;5.80;;;;;;;7.12;100.00;102326.97;10317933;28;20600;-67
2023/03/28 11:06:32;;;;;;;6.53;5.93;;;;;;;6.67;100.00;102333.50;10327911;28;20164;-68
2023/03/28 11:11:38;;;;;;;9.15;6.35;;;;;;;7.10;100.00;102326.41;10336186;27;20501;-68
2023/03/28 11:17:00;;;;;;;6.80;6.10;;;;;;;6.62;100.00;102330.72;10321335;28;20127;-68
2023/03/28 11:22:06;;;;;;;6.80;6.20;;;;;;;6.32;100.00;102321.06;10290214;28;20063;-67
2023/03/28 11:27:26;;;;;;;7.70;5.95;;;;;;;6.39;100.00;102329.88;10320335;28;20103;-67
2023/03/28 11:32:46;;;;;;;8.10;6.63;;;;;;;6.96;100.00;102320.53;10340891;28;20055;-67
2023/03/28 11:37:51;;;;;;;10.25;6.50;;;;;;;7.23;100.00;102309.69;10333154;28;20524;-67
2023/03/28 11:42:55;;;;;;;8.70;5.85;;;;;;;7.25;100.00;102318.41;10338473;28;20048;-67
2023/03/28 11:48:05;;;;;;;8.75;6.35;;;;;;;7.73;100.00;102311.25;10337629;28;20044;-67
2023/03/28 11:53:25;;;;;;;9.68;6.22;;;;;;;9.50;100.00;102312.66;10336516;28;20652;-67
2023/03/28 11:58:28;;;;;;;9.63;6.20;;;;;;;8.21;100.00;102298.53;10330132;28;20154;-67
2023/03/28 12:03:35;;;;;;;6.57;5.65;;;;;;;7.50;100.00;102306.16;10335031;28;20040;-67
2023/03/28 12:08:40;;;;;;;10.45;6.18;;;;;;;8.93;100.00;102293.41;10334510;28;20125;-67
2023/03/28 12:14:04;;;;;;;10.10;6.18;;;;;;;-146.18;100.00;67994.34;10330946;28;20416;-67
2023/03/28 12:19:11;;;;;;;7.07;5.70;;;;;;;7.97;100.00;102297.28;10332456;28;20044;-67
2023/03/28 12:24:34;;;;;;;10.38;6.43;;;;;;;7.29;100.00;102295.06;10333564;28;20133;-67
2023/03/28 12:29:58;;;;;;;9.17;5.93;;;;;;;6.41;100.00;102302.47;10342150;28;20090;-67
2023/03/28 12:35:21;;;;;;;8.68;6.00;;;;;;;6.06;100.00;102301.69;10343597;28;20048;-67
2023/03/28 12:40:26;;;;;;;8.18;5.70;;;;;;;5.87;100.00;102313.84;10342740;27;20123;-67
2023/03/28 12:45:31;;;;;;;6.93;6.10;;;;;;;5.67;100.00;102314.34;10337659;28;20404;-67
2023/03/28 12:50:34;;;;;;;7.43;5.68;;;;;;;5.40;100.00;102324.97;10330173;28;20041;-67
2023/03/28 12:55:34;;;;;;;10.25;6.40;;;;;;;5.47;100.00;102322.94;10331600;28;20053;-67
2023/03/28 13:00:38;;;;;;;5.97;5.30;;;;;;;5.36;100.00;102323.81;10324530;28;20041;-68
2023/03/28 13:06:09;;;;;;;10.77;5.78;;;;;;;5.36;100.00;102323.81;10333965;28;20048;-67
2023/03/28 13:11:33;;;;;;;13.23;6.15;;;;;;;5.05;100.00;102328.66;10345284;28;20040;-67
2023/03/28 13:16:51;;;;;;;11.13;5.80;;;;;;;4.39;100.00;102341.66;10330657;28;20536;-67
2023/03/28 13:21:56;;;;;;;11.05;5.60;;;;;;;4.40;100.00;102333.25;10339573;28;20052;-67
2023/03/28 13:26:55;;;;;;;10.82;5.43;;;;;;;4.95;100.00;102329.28;10332507;28;21066;-68
2023/03/28 13:32:03;;;;;;;15.18;6.28;;;;;;;5.27;100.00;102326.94;10346628;28;20139;-68
2023/03/28 13:37:18;;;;;;;13.50;6.05;;;;;;;5.73;100.00;102312.50;10337418;28;20083;-68
2023/03/28 13:42:34;;;;;;;11.57;6.63;;;;;;;6.45;100.00;102293.56;10342378;28;20121;-68
2023/03/28 13:47:38;;;;;;;12.38;6.40;;;;;;;8.19;100.00;102278.91;10342793;28;20068;-68
2023/03/28 13:52:36;;;;;;;9.95;6.45;;;;;;;8.19;100.00;102278.91;10343143;28;20047;-68
2023/03/28 13:57:33;;;;;;;10.35;6.35;;;;;;;11.08;100.00;102254.84;10339284;28;20068;-68
2023/03/28 14:02:35;;;;;;;11.82;6.40;;;;;;;8.81;100.00;102252.75;10338682;28;20052;-68
2023/03/28 14:07:32;;;;;;;12.18;6.80;;;;;;;8.35;100.00;102254.44;10334604;28;20071;-68
2023/03/28 14:12:29;;;;;;;12.40;6.85;;;;;;;7.78;100.00;102251.38;10347439;28;20040;-68
2023/03/28 14:17:31;;;;;;;9.18;7.43;;;;;;;7.39;100.00;102253.53;10336097;28;20561;-68
2023/03/28 14:22:30;;;;;;;11.88;6.75;;;;;;;7.32;100.00;102231.16;10343457;27;20068;-68
2023/03/28 14:27:34;;;;;;;10.48;6.70;;;;;;;7.51;100.00;102228.84;10334912;28;20501;-68
2023/03/28 14:32:31;;;;;;;12.43;6.97;;;;;;;7.53;100.00;102216.63;10337091;28;20040;-68
2023/03/28 14:37:28;;;;;;;9.40;6.80;;;;;;;8.09;100.00;102218.88;10334705;28;20051;-68
2023/03/28 14:42:27;;;;;;;7.97;6.25;;;;;;;8.56;100.00;102201.69;10326938;28;20426;-68
2023/03/28 14:47:29;;;;;;;11.18;6.82;;;;;;;7.88;100.00;102200.78;10334051;28;20457;-68
2023/03/28 14:52:39;;;;;;;8.88;5.97;;;;;;;8.57;100.00;102192.41;10345057;28;20086;-68
2023/03/28 14:57:37;;;;;;;9.00;6.45;;;;;;;8.27;100.00;102192.28;10338066;28;20135;-68
2023/03/28 15:02:37;;;;;;;14.05;7.25;;;;;;;9.29;100.00;102176.16;10337672;28;20055;-66
2023/03/28 15:07:36;;;;;;;12.90;6.88;;;;;;;9.64;100.00;102171.75;10327357;28;20106;-68
2023/03/28 15:12:40;;;;;;;10.95;6.57;;;;;;;8.98;100.00;102165.22;10336080;28;20043;-69
2023/03/28 15:17:37;;;;;;;15.38;6.90;;;;;;;8.32;100.00;102159.59;10327475;28;20087;-67
2023/03/28 15:22:34;;;;;;;9.82;6.82;;;;;;;8.64;100.00;102160.25;10334219;28;20047;-68
2023/03/28 15:27:33;;;;;;;14.15;7.15;;;;;;;9.02;100.00;102154.59;10314628;28;20060;-68
2023/03/28 15:32:31;;;;;;;13.82;6.55;;;;;;;8.50;100.00;102137.34;10335007;28;20048;-68
2023/03/28 15:37:38;;;;;;;11.10;5.82;;;;;;;8.01;100.00;102134.97;10332841;28;20102;-68
2023/03/28 15:42:35;;;;;;;9.10;5.85;;;;;;;8.47;100.00;102116.06;10339849;28;20444;-67
2023/03/28 15:47:34;;;;;;;18.38;6.68;;;;;;;8.53;100.00;102119.63;10345225;28;20131;-67
2023/03/28 15:52:33;;;;;;;12.25;5.85;;;;;;;8.32;100.00;102110.53;10334070;27;20044;-67
2023/03/28 15:57:30;;;;;;;12.85;6.43;;;;;;;7.91;100.00;102103.03;10325238;28;20044;-67
2023/03/28 16:02:26;;;;;;;12.90;5.68;;;;;;;8.46;100.00;102106.25;10340043;27;20130;-68
2023/03/28 16:07:23;;;;;;;6.88;5.55;;;;;;;8.72;100.00;102095.38;10316380;28;20051;-68
2023/03/28 16:12:20;;;;;;;6.55;5.68;;;;;;;8.90;97.84;102092.09;10338070;28;21301;-67
2023/03/28 16:17:16;;;;;;;9.15;5.90;;;;;;;8.94;96.65;102087.75;10336202;28;20076;-68
2023/03/28 16:22:13;;;;;;;13.02;6.15;;;;;;;8.18;96.61;102083.78;10340308;28;20051;-67
2023/03/28 16:27:09;;;;;;;10.40;5.78;;;;;;;8.45;95.97;102069.19;10332637;28;20064;-67
2023/03/28 16:32:06;;;;;;;6.68;5.95;;;;;;;7.97;94.97;102069.28;10333933;28;20123;-67
2023/03/28 16:37:02;;;;;;;8.75;6.72;;;;;;;7.72;100.00;102075.44;10348946;28;20044;-68
2023/03/28 16:41:59;;;;;;;12.35;5.50;;;;;;;7.58;100.00;102082.47;10342523;28;20139;-67
2023/03/28 16:46:56;;;;;;;7.15;5.88;;;;;;;7.19;100.00;102077.31;10347248;28;20049;-67
2023/03/28 16:51:53;;;;;;;10.35;6.15;;;;;;;7.07;99.03;102082.94;10343893;28;20069;-67
2023/03/28 16:56:50;;;;;;;9.40;5.95;;;;;;;6.97;100.00;102077.44;10344854;28;20044;-67
2023/03/28 17:01:47;;;;;;;10.80;5.80;;;;;;;6.94;100.00;102078.78;10343446;28;20048;-67
2023/03/28 17:06:44;;;;;;;12.50;6.30;;;;;;;6.87;100.00;102072.75;10342807;28;20060;-67
2023/03/28 17:11:41;;;;;;;11.48;6.68;;;;;;;6.80;100.00;102074.88;10332192;28;20093;-67
2023/03/28 17:16:39;;;;;;;8.52;5.50;;;;;;;6.84;100.00;102078.69;10322493;28;20048;-67
2023/03/28 17:21:36;;;;;;;10.85;6.15;;;;;;;6.82;100.00;102069.97;10333271;28;20049;-68
2023/03/28 17:26:32;;;;;;;9.18;5.68;;;;;;;6.70;100.00;102075.59;10350095;28;20048;-67
2023/03/28 17:31:30;;;;;;;9.45;5.95;;;;;;;6.72;100.00;102080.78;10344909;28;20048;-67
2023/03/28 17:36:28;;;;;;;8.85;5.78;;;;;;;6.55;100.00;102080.09;10338092;28;20079;-67
2023/03/28 17:41:26;;;;;;;10.32;6.57;;;;;;;6.36;100.00;102077.72;10340903;28;20050;-67
2023/03/28 17:46:23;;;;;;;9.75;6.20;;;;;;;6.24;100.00;102074.31;10337530;28;20497;-66
2023/03/28 17:51:20;;;;;;;9.48;5.90;;;;;;;6.10;100.00;102073.91;10326250;28;20044;-67
2023/03/28 17:56:17;;;;;;;6.72;5.53;;;;;;;5.94;100.00;102072.03;10339243;28;20040;-67
2023/03/28 18:01:17;;;;;;;9.40;5.80;;;;;;;5.84;100.00;102072.75;10336798;28;20054;-67
2023/03/28 18:06:13;;;;;;;7.15;5.90;;;;;;;5.76;100.00;102078.63;10337710;28;20043;-66
2023/03/28 18:11:13;;;;;;;11.85;6.60;;;;;;;5.64;100.00;102071.44;10341452;28;20137;-67
2023/03/28 18:16:12;;;;;;;7.88;5.55;;;;;;;5.57;100.00;102076.22;10329580;28;20036;-68
2023/03/28 18:21:10;;;;;;;9.50;5.55;;;;;;;5.58;100.00;102072.41;10323969;28;20527;-68
2023/03/28 18:26:07;;;;;;;9.60;5.82;;;;;;;5.54;100.00;102060.44;10337193;28;20052;-68
2023/03/28 18:31:07;;;;;;;9.57;6.28;;;;;;;5.53;100.00;102056.09;10328056;28;20124;-67
2023/03/28 18:36:04;;;;;;;8.10;5.20;;;;;;;5.50;100.00;102051.16;10325950;28;20044;-68
2023/03/28 18:41:01;;;;;;;7.00;5.40;;;;;;;5.53;100.00;102047.94;10341716;28;20052;-68
2023/03/28 18:45:59;;;;;;;7.70;5.93;;;;;;;5.43;100.00;102042.38;10336284;28;20151;-68
2023/03/28 18:50:57;;;;;;;8.88;5.70;;;;;;;5.47;100.00;102043.50;10333853;28;20456;-68
2023/03/28 18:55:53;;;;;;;13.60;6.22;;;;;;;5.47;100.00;102033.47;10339664;28;20051;-68
2023/03/28 19:00:58;;;;;;;10.75;5.30;;;;;;;5.40;100.00;102037.44;10327797;28;20526;-68
2023/03/28 19:06:00;;;;;;;6.75;5.57;;;;;;;5.40;100.00;102032.03;10331072;28;20051;-68
2023/03/28 19:10:59;;;;;;;10.68;5.63;;;;;;;5.39;100.00;102027.69;10339685;28;20506;-68
2023/03/28 19:16:08;;;;;;;11.10;5.88;;;;;;;5.43;100.00;102023.38;10337685;28;20413;-68
2023/03/28 19:21:05;;;;;;;9.63;5.70;;;;;;;5.42;100.00;102016.31;10351885;28;20131;-68
2023/03/28 19:26:04;;;;;;;9.88;5.15;;;;;;;5.42;100.00;102005.47;10330984;28;20045;-68
2023/03/28 19:31:03;;;;;;;12.80;5.10;;;;;;;5.46;100.00;101998.47;10338308;28;20067;-67
2023/03/28 19:36:00;;;;;;;10.15;5.47;;;;;;;5.38;100.00;102002.44;10344361;28;20040;-68
2023/03/28 19:40:58;;;;;;;12.07;5.72;;;;;;;5.42;100.00;101997.34;10326090;28;20045;-68
2023/03/28 19:46:06;;;;;;;13.77;6.60;;;;;;;5.39;100.00;102000.56;10330561;28;20146;-66
2023/03/28 19:51:03;;;;;;;9.80;6.30;;;;;;;5.32;100.00;101986.38;10333404;27;20505;-70
2023/03/28 19:56:00;;;;;;;6.25;5.63;;;;;;;5.34;100.00;101984.19;10322098;28;20052;-72
2023/03/28 20:00:56;;;;;;;11.98;6.20;;;;;;;5.28;100.00;101981.44;10327291;28;20131;-72
2023/03/28 20:05:54;;;;;;;8.52;5.53;;;;;;;5.27;100.00;101968.94;10343571;27;20569;-74
2023/03/28 20:10:52;;;;;;;7.55;5.55;;;;;;;5.31;100.00;101965.72;10338633;28;20058;-68
2023/03/28 20:15:49;;;;;;;14.45;6.10;;;;;;;5.20;100.00;101962.91;10349933;27;20057;-69
2023/03/28 20:20:53;;;;;;;9.13;5.95;;;;;;;5.26;100.00;101967.28;10353869;28;20461;-70
2023/03/28 20:25:52;;;;;;;10.75;5.40;;;;;;;5.25;100.00;101965.66;10331215;28;20067;-69
2023/03/28 20:30:48;;;;;;;7.25;4.93;;;;;;;5.21;100.00;101958.28;10338597;27;20063;-69
2023/03/28 20:35:57;;;;;;;9.43;5.30;;;;;;;5.19;100.00;101950.41;10352337;28;20040;-69
2023/03/28 20:40:54;;;;;;;7.38;5.50;;;;;;;5.26;100.00;101937.47;10340265;28;20673;-69
2023/03/28 20:45:55;;;;;;;7.10;4.95;;;;;;;5.22;100.00;101930.09;10344014;28;20673;-70
2023/03/28 20:50:54;;;;;;;6.57;4.55;;;;;;;5.19;100.00;101926.00;10336929;28;20052;-69
2023/03/28 20:56:00;;;;;;;9.98;5.95;;;;;;;5.16;100.00;101918.38;10353022;28;20489;-69
2023/03/28 21:00:59;;;;;;;9.55;5.03;;;;;;;5.16;100.00;101918.38;10361147;28;20516;-68
2023/03/28 21:05:56;;;;;;;9.07;4.97;;;;;;;5.18;100.00;101904.56;10346656;28;20043;-70
2023/03/28 21:10:52;;;;;;;8.38;4.32;;;;;;;5.18;100.00;101902.66;10342538;28;20052;-68
2023/03/28 21:15:51;;;;;;;10.68;4.22;;;;;;;5.19;100.00;101896.16;10354513;27;20401;-69
2023/03/28 21:20:48;;;;;;;11.93;5.07;;;;;;;5.20;100.00;101886.16;10338058;28;20048;-72
2023/03/28 21:25:44;;;;;;;9.73;5.80;;;;;;;5.17;100.00;101879.31;10351100;28;20444;-69
2023/03/28 21:30:41;;;;;;;9.30;5.05;;;;;;;5.13;100.00;101880.94;10340703;28;20044;-69
2023/03/28 21:35:38;;;;;;;9.13;5.40;;;;;;;5.04;100.00;101877.00;10327473;28;20524;-69
2023/03/28 21:40:35;;;;;;;10.20;5.35;;;;;;;4.97;100.00;101868.25;10331151;28;20454;-69
2023/03/28 21:45:32;;;;;;;7.63;4.53;;;;;;;4.93;100.00;101869.81;10343300;28;20052;-69
2023/03/28 21:50:30;;;;;;;8.38;4.93;;;;;;;4.95;100.00;101870.41;10338340;28;20466;-70
2023/03/28 21:55:26;;;;;;;9.93;4.85;;;;;;;4.91;100.00;101866.53;10345610;28;20040;-69
2023/03/28 22:00:23;;;;;;;10.85;5.28;;;;;;;4.95;100.00;101867.69;10342626;28;20058;-70
2023/03/28 22:05:20;;;;;;;7.47;5.03;;;;;;;4.91;100.00;101861.13;10343419;27;20581;-71
2023/03/28 22:10:25;;;;;;;8.05;4.68;;;;;;;4.92;100.00;101862.75;10336154;28;20068;-69
2023/03/28 22:15:22;;;;;;;6.53;4.00;;;;;;;4.93;100.00;101864.41;10345101;28;20052;-70
2023/03/28 22:20:21;;;;;;;9.65;4.88;;;;;;;4.92;100.00;101858.16;10350280;28;20130;-69
2023/03/28 22:25:17;;;;;;;8.45;4.40;;;;;;;4.89;100.00;101876.81;10337217;28;20048;-68
2023/03/28 22:30:14;;;;;;;8.60;4.53;;;;;;;4.88;100.00;101875.19;10340568;28;20699;-70
2023/03/28 22:35:11;;;;;;;7.43;4.07;;;;;;;4.77;100.00;101866.91;10343756;28;20075;-70
2023/03/28 22:40:09;;;;;;;9.52;4.43;;;;;;;4.80;100.00;101869.13;10330006;28;20048;-69
2023/03/28 22:45:06;;;;;;;10.57;4.20;;;;;;;4.87;100.00;101870.81;10346660;28;20047;-69
2023/03/28 22:50:03;;;;;;;12.85;5.97;;;;;;;4.65;100.00;101877.03;10331876;28;20413;-71
2023/03/28 22:55:00;;;;;;;8.25;4.68;;;;;;;4.19;100.00;101881.75;10339666;28;20043;-70
2023/03/28 22:59:56;;;;;;;10.45;5.40;;;;;;;3.98;100.00;101869.78;10345092;28;20044;-70